PILOTS ONLINE: 630    ATC ONLINE: 130

KMEI

Key Field

Location

IATA MEI
City Meridian
Country  United States
Latitude 32° 19' 57" N
Longitude 88° 45' 6" W
Elevation 297 ft
Type Medium Airport

Map

Weather

METAR
2014/09/02 17:58
KMEI 021758Z 20007KT 10SM SCT032 SCT042 31/22 A3006 RMK AO2 SLP174 60000 T03110222 10317 20233 58014
TAF
2014/09/02 18:42
TAF KMEI 021738Z 0218/0318 18004KT P6SM VCSH SCT025 SCT035 
     FM022000 19006KT P6SM VCTS SCT040CB 
     FM022300 18005KT P6SM SHRA VCTS SCT040CB 
     FM030200 20003KT P6SM SCT100 
     FM031000 00000KT 4SM BR SCT250 
     FM031400 VRB03KT P6SM SCT250

Runways

01/19 10003 ft / 150 ft
04/22 4599 ft / 150 ft

Outbound flights

Callsign Flying to Pilot ATD/STD ETA Aircraft

Inbound flights

Callsign Flying from Pilot ATD ETA Aircraft